Time;durP1;ratioP1;P1;durP2;ratioP2;P2;SDS_P1;SDS_P2;PMS_P1;PMS_P2;Temp;Humidity;BMP_temperature;BMP_pressure;BME280_temperature;BME280_humidity;BME280_pressure;Samples;Min_cycle;Max_cycle;Signal;HPM_P1;HPM_P2
2023/07/27 00:00:13;;;;;;;17.40;5.80;;;;;;;20.19;100.00;99274.98;106137;1256;60339;-45
2023/07/27 00:02:42;;;;;;;11.40;5.40;;;;;;;20.19;100.00;99280.76;105792;1251;60423;-46
2023/07/27 00:05:09;;;;;;;12.70;5.70;;;;;;;20.19;100.00;99284.10;105674;1255;74770;-49
2023/07/27 00:07:36;;;;;;;10.70;5.50;;;;;;;20.20;100.00;99280.52;105977;1255;65376;-46
2023/07/27 00:10:03;;;;;;;16.70;6.20;;;;;;;20.21;100.00;99275.52;105802;1256;71507;-42
2023/07/27 00:12:31;;;;;;;10.20;5.20;;;;;;;20.24;100.00;99274.09;105958;1254;61842;-45
2023/07/27 00:14:58;;;;;;;13.60;5.40;;;;;;;20.25;100.00;99272.98;105926;1251;60532;-43
2023/07/27 00:17:25;;;;;;;11.70;5.80;;;;;;;20.24;100.00;99269.15;106029;1255;73868;-43
2023/07/27 00:19:51;;;;;;;15.30;5.60;;;;;;;20.23;100.00;99267.17;105919;1258;63363;-42
2023/07/27 00:22:18;;;;;;;14.30;5.40;;;;;;;20.20;100.00;99272.15;106002;1256;72542;-45
2023/07/27 00:24:45;;;;;;;9.90;5.80;;;;;;;20.17;100.00;99274.80;105732;1257;61947;-44
2023/07/27 00:27:13;;;;;;;12.90;4.90;;;;;;;20.14;100.00;99272.59;106053;1256;61143;-45
2023/07/27 00:29:39;;;;;;;10.50;5.50;;;;;;;20.10;100.00;99275.85;105768;1255;73814;-44
2023/07/27 00:32:07;;;;;;;11.60;4.90;;;;;;;20.07;100.00;99279.24;105759;1256;65334;-42
2023/07/27 00:34:34;;;;;;;9.70;5.20;;;;;;;20.04;100.00;99289.98;105803;1256;72339;-42
2023/07/27 00:37:01;;;;;;;14.30;5.70;;;;;;;20.00;100.00;99298.48;105853;1256;61970;-43
2023/07/27 00:39:29;;;;;;;17.50;4.90;;;;;;;19.96;100.00;99305.30;105837;1254;60789;-44
2023/07/27 00:41:56;;;;;;;12.60;5.10;;;;;;;19.91;100.00;99311.23;105895;1255;73856;-43
2023/07/27 00:44:23;;;;;;;10.80;5.30;;;;;;;19.87;100.00;99330.61;105928;1254;65146;-42
2023/07/27 00:46:51;;;;;;;9.80;5.50;;;;;;;19.82;100.00;99343.33;105873;1256;71428;-42
2023/07/27 00:49:20;;;;;;;18.10;5.30;;;;;;;19.78;100.00;99354.56;106097;1251;61931;-42
2023/07/27 00:51:48;;;;;;;6.80;4.80;;;;;;;19.73;100.00;99369.42;106053;1255;60412;-43
2023/07/27 00:54:16;;;;;;;12.40;4.70;;;;;;;19.69;100.00;99394.89;105871;1256;73520;-44
2023/07/27 00:56:43;;;;;;;8.40;4.80;;;;;;;19.66;100.00;99437.46;105852;1257;63122;-44
2023/07/27 00:59:10;;;;;;;8.80;5.30;;;;;;;19.65;100.00;99468.17;106018;1251;72687;-41
2023/07/27 01:01:37;;;;;;;11.50;5.70;;;;;;;19.62;100.00;99486.27;105878;1251;62101;-43
2023/07/27 01:04:04;;;;;;;16.50;5.20;;;;;;;19.59;100.00;99513.09;105827;1251;60533;-41
2023/07/27 01:06:31;;;;;;;14.50;5.70;;;;;;;19.57;100.00;99549.38;105853;1256;73939;-44
2023/07/27 01:08:59;;;;;;;11.60;5.20;;;;;;;19.58;100.00;99571.54;106167;1256;65349;-43
2023/07/27 01:11:29;;;;;;;13.00;5.00;;;;;;;19.58;100.00;99576.45;106060;1256;73604;-44
2023/07/27 01:14:19;;;;;;;16.60;6.30;;;;;;;19.55;100.00;99590.31;105895;1257;60495;-44
2023/07/27 01:17:06;;;;;;;12.30;5.50;;;;;;;19.51;100.00;99608.05;105829;1255;60559;-44
2023/07/27 01:19:52;;;;;;;14.60;5.30;;;;;;;19.48;100.00;99623.35;106022;1251;74021;-43
2023/07/27 01:22:39;;;;;;;11.70;5.20;;;;;;;19.43;100.00;99638.17;105723;1257;67514;-44
2023/07/27 01:25:07;;;;;;;;;;;;;;;19.39;100.00;99642.80;105881;1256;72683;-44
2023/07/27 01:27:52;;;;;;;8.70;5.30;;;;;;;19.34;100.00;99659.95;105866;1255;61989;-44
2023/07/27 01:30:20;;;;;;;10.20;5.40;;;;;;;19.28;100.00;99680.70;105891;1251;60445;-44
2023/07/27 01:32:48;;;;;;;10.20;5.40;;;;;;;19.22;100.00;99699.23;105866;1256;73781;-43
2023/07/27 01:35:15;;;;;;;14.60;5.60;;;;;;;19.18;100.00;99723.64;105904;1254;64407;-42
2023/07/27 01:37:42;;;;;;;11.90;4.50;;;;;;;19.15;100.00;99738.49;105810;1251;72659;-45
2023/07/27 01:40:10;;;;;;;10.60;4.90;;;;;;;19.14;100.00;99763.77;105598;1257;61914;-44
2023/07/27 01:42:37;;;;;;;11.20;4.90;;;;;;;19.13;100.00;99791.80;105808;1257;60499;-42
2023/07/27 01:45:05;;;;;;;14.10;5.40;;;;;;;19.14;100.00;99821.09;105907;1257;73913;-43
2023/07/27 01:47:32;;;;;;;13.40;5.30;;;;;;;19.17;100.00;99839.30;105895;1258;64386;-42
2023/07/27 01:49:59;;;;;;;14.20;5.00;;;;;;;19.18;100.00;99873.14;105951;1256;72447;-45
2023/07/27 01:52:26;;;;;;;10.70;5.90;;;;;;;19.21;100.00;99915.06;105831;1257;60361;-43
2023/07/27 01:54:53;;;;;;;7.50;5.20;;;;;;;19.25;100.00;99927.59;105869;1256;60406;-42
2023/07/27 01:57:19;;;;;;;16.80;5.40;;;;;;;19.29;100.00;99939.95;105670;1257;74268;-44
2023/07/27 01:59:46;;;;;;;8.10;5.70;;;;;;;19.32;100.00;99946.58;105727;1255;65319;-43
2023/07/27 02:02:14;;;;;;;16.80;6.40;;;;;;;19.36;100.00;99945.27;105815;1257;72888;-42
2023/07/27 02:04:41;;;;;;;15.10;5.70;;;;;;;19.42;100.00;99943.73;105946;1251;61839;-50
2023/07/27 02:07:08;;;;;;;13.50;5.40;;;;;;;19.44;100.00;99954.39;105908;1251;60424;-44
2023/07/27 02:09:37;;;;;;;8.40;5.30;;;;;;;19.48;100.00;99958.02;105885;1251;73739;-44
2023/07/27 02:12:13;;;;;;;9.30;5.50;;;;;;;19.51;100.00;99945.73;105843;1256;65506;-43
2023/07/27 02:14:47;;;;;;;16.00;6.20;;;;;;;19.54;100.00;99944.33;105712;1256;72764;-42
2023/07/27 02:17:24;;;;;;;15.90;5.70;;;;;;;19.57;100.00;99954.48;105950;1257;61895;-43
2023/07/27 02:19:57;;;;;;;6.30;4.90;;;;;;;19.59;100.00;99961.19;105361;1251;536612;-44
2023/07/27 02:24:53;;;;;;;10.30;5.50;;;;;;;19.65;100.00;99997.86;102461;1294;600226;-41
2023/07/27 02:27:20;;;;;;;14.40;6.10;;;;;;;19.67;100.00;99959.10;104828;1270;61747;-42
2023/07/27 02:29:47;;;;;;;9.90;5.60;;;;;;;19.70;100.00;99945.06;104725;1270;60233;-43
2023/07/27 02:32:14;;;;;;;16.10;6.10;;;;;;;19.71;100.00;99952.56;104792;1271;72215;-42
2023/07/27 02:34:41;;;;;;;17.20;6.60;;;;;;;19.70;100.00;99961.34;104684;1272;65502;-44
2023/07/27 02:37:08;;;;;;;10.30;6.30;;;;;;;19.71;100.00;99959.56;105391;1257;234151;-44
2023/07/27 02:39:36;;;;;;;15.50;6.50;;;;;;;19.71;100.00;99969.85;105729;1256;61997;-45
2023/07/27 02:42:03;;;;;;;9.30;6.00;;;;;;;19.73;100.00;99963.44;105932;1254;60285;-42
2023/07/27 02:44:30;;;;;;;9.80;6.00;;;;;;;19.76;100.00;99966.76;105612;1259;71198;-42
2023/07/27 02:46:57;;;;;;;9.90;6.10;;;;;;;19.81;100.00;99968.69;105671;1266;65229;-42
2023/07/27 02:49:25;;;;;;;14.80;6.20;;;;;;;19.85;100.00;99978.79;105683;1259;72753;-44
2023/07/27 02:51:52;;;;;;;13.00;6.30;;;;;;;19.87;100.00;99967.60;105720;1256;62069;-45
2023/07/27 02:54:19;;;;;;;11.10;6.00;;;;;;;19.92;100.00;99964.84;105613;1258;60270;-45
2023/07/27 02:56:48;;;;;;;18.60;6.40;;;;;;;19.96;100.00;99956.70;105581;1259;73612;-44
2023/07/27 02:59:16;;;;;;;20.30;7.30;;;;;;;20.01;100.00;99950.29;105738;1255;63857;-44
2023/07/27 03:01:44;;;;;;;19.80;6.70;;;;;;;20.06;100.00;99943.80;105846;1256;72684;-41
2023/07/27 03:04:15;;;;;;;14.60;6.50;;;;;;;20.13;100.00;99936.72;105607;1257;61080;-45
2023/07/27 03:06:43;;;;;;;10.10;6.20;;;;;;;20.19;100.00;99934.39;105629;1255;60155;-43
2023/07/27 03:09:10;;;;;;;13.90;7.30;;;;;;;20.24;100.00;99932.81;105674;1257;71411;-43
2023/07/27 03:11:37;;;;;;;12.40;5.90;;;;;;;20.29;100.00;99934.90;105660;1257;65415;-42
2023/07/27 03:14:04;;;;;;;15.00;6.30;;;;;;;20.36;100.00;99930.10;105681;1257;72680;-45
2023/07/27 03:16:31;;;;;;;17.40;7.10;;;;;;;20.43;100.00;99928.23;105916;1257;61906;-44
2023/07/27 03:18:59;;;;;;;15.10;6.90;;;;;;;20.50;100.00;99933.70;105730;1255;60560;-46
2023/07/27 03:21:27;;;;;;;14.30;6.20;;;;;;;20.56;100.00;99927.89;105595;1254;73220;-45
2023/07/27 03:23:54;;;;;;;9.00;5.90;;;;;;;20.60;100.00;99934.09;105704;1255;64400;-47
2023/07/27 03:26:22;;;;;;;12.80;6.10;;;;;;;20.64;100.00;99937.66;105668;1254;72767;-43
2023/07/27 03:28:49;;;;;;;13.30;6.00;;;;;;;20.69;100.00;99943.83;105939;1266;61078;-47
2023/07/27 03:31:23;;;;;;;15.20;6.80;;;;;;;20.74;100.00;99947.49;105633;1254;60038;-43
2023/07/27 03:33:50;;;;;;;11.10;6.40;;;;;;;20.81;100.00;99944.59;105821;1257;72731;-43
2023/07/27 03:36:19;;;;;;;18.50;7.00;;;;;;;20.89;100.00;99942.79;105855;1257;65509;-43
2023/07/27 03:38:46;;;;;;;14.10;6.80;;;;;;;21.01;100.00;99945.52;105672;1259;72457;-45
2023/07/27 03:41:13;;;;;;;13.50;6.80;;;;;;;21.15;100.00;99939.22;105687;1258;61813;-44
2023/07/27 03:43:40;;;;;;;18.00;7.30;;;;;;;21.30;100.00;99930.83;105548;1258;60295;-46
2023/07/27 03:46:09;;;;;;;11.10;6.80;;;;;;;21.44;100.00;99916.16;105651;1257;72966;-44
2023/07/27 03:48:39;;;;;;;13.10;6.80;;;;;;;21.58;100.00;99899.68;105832;1257;64124;-46
2023/07/27 03:51:06;;;;;;;9.10;7.20;;;;;;;21.69;100.00;99880.98;105703;1259;73057;-44
2023/07/27 03:53:33;;;;;;;12.40;7.20;;;;;;;21.81;100.00;99858.30;105598;1258;61971;-45
2023/07/27 03:56:01;;;;;;;15.10;7.60;;;;;;;21.89;100.00;99829.54;105696;1254;60201;-45
2023/07/27 03:58:29;;;;;;;15.40;7.20;;;;;;;21.94;100.00;99805.90;105684;1254;73117;-45
2023/07/27 04:00:58;;;;;;;14.40;7.80;;;;;;;22.00;100.00;99775.23;105569;1260;65449;-45
2023/07/27 04:03:28;;;;;;;20.60;9.30;;;;;;;22.06;100.00;99750.23;105606;1259;72694;-44
2023/07/27 04:05:54;;;;;;;20.80;9.10;;;;;;;22.07;100.00;99718.17;105534;1258;61916;-43
2023/07/27 04:08:21;;;;;;;21.50;9.90;;;;;;;22.05;100.00;99687.39;105607;1259;60280;-43
2023/07/27 04:10:49;;;;;;;16.70;9.30;;;;;;;22.02;100.00;99678.88;105577;1257;73000;-44
2023/07/27 04:13:15;;;;;;;17.50;9.20;;;;;;;22.00;100.00;99683.77;105485;1254;65471;-44
2023/07/27 04:15:42;;;;;;;23.10;10.20;;;;;;;21.97;100.00;99685.20;105605;1260;72613;-46
2023/07/27 04:18:09;;;;;;;20.20;9.80;;;;;;;21.97;100.00;99696.13;105638;1258;61717;-42
2023/07/27 04:20:36;;;;;;;22.20;9.60;;;;;;;21.95;100.00;99702.73;105888;1255;60789;-43
2023/07/27 04:23:03;;;;;;;20.60;9.50;;;;;;;21.97;100.00;99703.29;105712;1257;72775;-43
2023/07/27 04:25:30;;;;;;;22.10;10.00;;;;;;;21.97;100.00;99704.32;105803;1256;65297;-43
2023/07/27 04:27:57;;;;;;;20.40;9.80;;;;;;;21.98;100.00;99714.60;105541;1257;72892;-42
2023/07/27 04:30:24;;;;;;;24.90;10.10;;;;;;;22.01;100.00;99724.23;105706;1257;61783;-44
2023/07/27 04:32:51;;;;;;;20.50;10.30;;;;;;;22.05;100.00;99728.85;105605;1254;60251;-45
2023/07/27 04:35:18;;;;;;;25.40;11.00;;;;;;;22.12;100.00;99726.75;105632;1260;73014;-43
2023/07/27 04:37:45;;;;;;;17.40;10.20;;;;;;;22.16;100.00;99705.33;105560;1257;65566;-44
2023/07/27 04:40:13;;;;;;;16.00;10.70;;;;;;;22.21;100.00;99685.74;105580;1258;71613;-44
2023/07/27 04:42:40;;;;;;;18.70;10.10;;;;;;;22.26;100.00;99674.13;105608;1259;62021;-42
2023/07/27 04:45:08;;;;;;;22.10;11.00;;;;;;;22.33;100.00;99659.04;105563;1256;59805;-42
2023/07/27 04:47:35;;;;;;;21.90;10.50;;;;;;;22.41;100.00;99641.38;105654;1255;71573;-42
2023/07/27 04:50:04;;;;;;;23.60;11.30;;;;;;;22.51;100.00;99629.29;105641;1257;65513;-45
2023/07/27 04:52:31;;;;;;;23.30;11.30;;;;;;;22.61;100.00;99634.26;105624;1254;70446;-42
2023/07/27 04:55:01;;;;;;;19.20;10.40;;;;;;;22.71;100.00;99611.33;105582;1257;60900;-42
2023/07/27 04:57:28;;;;;;;26.50;12.60;;;;;;;22.80;100.00;99572.61;105615;1254;60673;-43
2023/07/27 04:59:55;;;;;;;31.80;11.40;;;;;;;22.88;100.00;99552.61;105793;1257;73030;-46
2023/07/27 05:02:22;;;;;;;26.00;11.00;;;;;;;22.95;100.00;99531.42;105606;1257;65353;-44
2023/07/27 05:04:50;;;;;;;19.40;11.00;;;;;;;23.02;100.00;99496.54;105576;1254;72654;-42
2023/07/27 05:07:19;;;;;;;20.80;10.80;;;;;;;23.15;100.00;99478.87;105838;1253;61705;-45
2023/07/27 05:09:45;;;;;;;22.10;10.70;;;;;;;23.34;100.00;99480.08;105875;1254;60244;-44
2023/07/27 05:12:12;;;;;;;24.70;10.00;;;;;;;23.62;100.00;99466.96;105964;1256;73022;-45
2023/07/27 05:14:39;;;;;;;20.90;10.20;;;;;;;23.87;100.00;99409.19;105988;1254;65467;-44
2023/07/27 05:17:06;;;;;;;25.20;9.90;;;;;;;24.08;100.00;99340.02;105887;1257;72784;-42
2023/07/27 05:19:33;;;;;;;18.70;8.90;;;;;;;24.21;100.00;99241.23;105833;1257;62205;-43
2023/07/27 05:21:59;;;;;;;17.40;9.60;;;;;;;24.35;100.00;99206.58;105829;1253;61455;-45
2023/07/27 05:24:26;;;;;;;20.60;9.40;;;;;;;24.61;100.00;99212.92;105870;1257;73061;-45
2023/07/27 05:26:53;;;;;;;19.10;8.70;;;;;;;24.98;100.00;99196.99;105894;1257;64450;-44
2023/07/27 05:29:20;;;;;;;17.00;8.20;;;;;;;25.33;100.00;99141.67;105864;1254;72665;-46
2023/07/27 05:31:47;;;;;;;19.60;8.80;;;;;;;25.55;100.00;99099.41;105858;1256;60369;-45
2023/07/27 05:34:15;;;;;;;22.60;8.40;;;;;;;25.71;100.00;99097.93;105908;1254;60211;-44
2023/07/27 05:36:42;;;;;;;18.60;7.80;;;;;;;25.90;100.00;99095.77;105837;1257;72934;-45
2023/07/27 05:39:09;;;;;;;19.50;8.00;;;;;;;26.11;100.00;99095.88;105738;1257;65481;-45
2023/07/27 05:41:36;;;;;;;21.40;7.80;;;;;;;26.35;100.00;99101.60;105628;1254;72651;-45
2023/07/27 05:44:04;;;;;;;21.10;8.30;;;;;;;26.57;100.00;99110.22;105837;1257;60294;-45
2023/07/27 05:46:31;;;;;;;14.50;7.30;;;;;;;26.75;100.00;99122.62;105843;1256;60166;-43
2023/07/27 05:48:58;;;;;;;16.10;7.80;;;;;;;26.91;100.00;99128.92;106018;1253;72969;-44
2023/07/27 05:51:25;;;;;;;20.70;7.30;;;;;;;27.04;100.00;99136.21;105957;1257;65536;-42
2023/07/27 05:53:52;;;;;;;21.10;7.40;;;;;;;27.24;100.00;99130.84;105701;1254;72695;-46
2023/07/27 05:56:19;;;;;;;25.20;7.00;;;;;;;27.46;100.00;99141.16;105679;1257;60359;-44
2023/07/27 05:58:46;;;;;;;23.00;7.50;;;;;;;27.78;100.00;99148.67;105645;1255;60260;-46
2023/07/27 06:01:14;;;;;;;18.30;6.70;;;;;;;27.90;100.00;99189.50;105598;1257;73097;-44
2023/07/27 06:03:41;;;;;;;21.00;6.70;;;;;;;27.87;100.00;99211.16;105644;1257;63990;-47
2023/07/27 06:06:12;;;;;;;22.10;6.80;;;;;;;27.82;100.00;99212.50;105622;1254;72659;-45
2023/07/27 06:08:39;;;;;;;18.20;6.50;;;;;;;27.86;100.00;99211.25;105751;1257;60170;-45
2023/07/27 06:11:09;;;;;;;24.80;6.70;;;;;;;27.85;100.00;99212.94;105797;1253;60420;-45
2023/07/27 06:13:36;;;;;;;17.80;6.50;;;;;;;27.83;100.00;99211.04;105526;1257;73043;-44
2023/07/27 06:16:03;;;;;;;19.60;7.10;;;;;;;27.76;100.00;99214.77;105776;1257;65511;-45
2023/07/27 06:18:31;;;;;;;23.50;6.70;;;;;;;27.71;100.00;99219.27;105733;1254;71281;-44
2023/07/27 06:20:58;;;;;;;16.40;6.70;;;;;;;27.77;100.00;99221.91;105826;1257;60363;-45
2023/07/27 06:23:25;;;;;;;16.00;6.60;;;;;;;27.71;100.00;99218.74;105877;1254;60265;-44
2023/07/27 06:25:52;;;;;;;15.70;6.30;;;;;;;27.61;100.00;99223.90;105920;1254;72995;-44
2023/07/27 06:28:19;;;;;;;25.80;6.90;;;;;;;27.65;100.00;99203.77;105939;1256;65463;-45
2023/07/27 06:30:46;;;;;;;23.10;7.40;;;;;;;27.65;100.00;99217.59;106001;1254;72673;-44
2023/07/27 06:33:14;;;;;;;10.20;6.00;;;;;;;27.54;100.00;99228.30;105829;1256;60402;-44
2023/07/27 06:35:41;;;;;;;14.80;7.50;;;;;;;27.43;100.00;99232.40;105898;1254;60590;-43
2023/07/27 06:38:08;;;;;;;16.60;7.20;;;;;;;27.24;100.00;99231.25;105902;1254;73787;-45
2023/07/27 06:40:34;;;;;;;22.00;7.00;;;;;;;27.06;100.00;99224.25;105918;1252;65346;-44
2023/07/27 06:43:01;;;;;;;20.60;6.70;;;;;;;27.00;100.00;99212.20;105894;1255;72591;-45
2023/07/27 06:45:28;;;;;;;17.90;6.80;;;;;;;27.01;100.00;99200.34;105909;1257;61952;-49
2023/07/27 06:47:55;;;;;;;20.80;7.20;;;;;;;27.02;100.00;99203.14;105866;1254;60408;-43
2023/07/27 06:50:22;;;;;;;17.20;7.10;;;;;;;27.02;100.00;99199.79;105974;1253;73811;-49
2023/07/27 06:52:49;;;;;;;12.20;6.60;;;;;;;26.96;100.00;99194.02;105929;1257;65443;-41
2023/07/27 06:55:17;;;;;;;19.20;7.80;;;;;;;26.94;100.00;99187.52;105881;1254;72641;-42
2023/07/27 06:57:44;;;;;;;21.60;7.60;;;;;;;26.92;100.00;99177.30;105964;1254;61928;-45
2023/07/27 07:00:12;;;;;;;13.50;6.90;;;;;;;26.90;100.00;99176.40;105929;1254;60445;-45
2023/07/27 07:02:39;;;;;;;17.50;7.00;;;;;;;26.88;100.00;99172.02;105974;1257;73916;-45
2023/07/27 07:05:06;;;;;;;15.30;7.60;;;;;;;26.93;100.00;99159.29;105908;1256;65613;-44
2023/07/27 07:07:33;;;;;;;19.40;8.10;;;;;;;27.04;100.00;99149.85;105848;1256;71244;-43
2023/07/27 07:10:00;;;;;;;17.10;8.60;;;;;;;27.14;100.00;99155.25;105843;1255;61973;-44
2023/07/27 07:12:27;;;;;;;20.10;9.40;;;;;;;27.21;100.00;99168.89;105876;1254;60440;-43
2023/07/27 07:14:54;;;;;;;17.20;8.00;;;;;;;27.33;100.00;99153.02;105871;1257;73735;-43
2023/07/27 07:17:21;;;;;;;27.30;7.80;;;;;;;27.49;100.00;99145.40;105917;1254;65392;-43
2023/07/27 07:19:48;;;;;;;17.70;7.80;;;;;;;27.68;100.00;99145.16;106033;1254;72613;-43
2023/07/27 07:22:15;;;;;;;28.80;9.10;;;;;;;27.95;100.00;99154.72;105913;1257;60474;-42
2023/07/27 07:24:42;;;;;;;19.60;7.70;;;;;;;28.17;100.00;99169.67;105926;1254;60736;-44
2023/07/27 07:27:09;;;;;;;27.30;8.10;;;;;;;28.36;100.00;99195.77;105877;1256;73979;-45
2023/07/27 07:29:37;;;;;;;26.50;7.60;;;;;;;28.50;100.00;99225.39;105955;1256;65556;-43
2023/07/27 07:32:04;;;;;;;26.00;8.10;;;;;;;28.48;100.00;99264.28;105944;1257;72620;-44
2023/07/27 07:34:33;;;;;;;33.00;8.20;;;;;;;28.42;100.00;99280.24;105892;1254;60980;-43
2023/07/27 07:37:00;;;;;;;29.70;9.20;;;;;;;28.38;100.00;99281.88;105916;1252;60437;-42
2023/07/27 07:39:27;;;;;;;19.90;7.60;;;;;;;28.35;100.00;99271.02;105855;1254;73835;-46
2023/07/27 07:41:54;;;;;;;17.20;7.90;;;;;;;28.26;100.00;99272.45;105976;1257;64512;-43
2023/07/27 07:44:21;;;;;;;27.40;8.40;;;;;;;28.20;100.00;99263.11;105980;1254;72667;-43
2023/07/27 07:46:48;;;;;;;17.40;7.00;;;;;;;28.18;100.00;99252.38;105866;1254;61977;-46
2023/07/27 07:49:16;;;;;;;13.00;6.70;;;;;;;28.16;100.00;99243.06;105944;1254;60456;-45
2023/07/27 07:51:43;;;;;;;14.90;8.10;;;;;;;28.11;100.00;99237.02;105906;1253;73723;-46
2023/07/27 07:54:10;;;;;;;13.70;7.20;;;;;;;28.02;100.00;99247.85;105931;1256;65439;-45
2023/07/27 07:56:37;;;;;;;17.30;7.40;;;;;;;27.86;100.00;99263.31;105898;1254;72586;-45
2023/07/27 07:59:04;;;;;;;19.90;8.50;;;;;;;27.72;100.00;99264.35;105938;1256;60354;-45
2023/07/27 08:01:31;;;;;;;21.60;7.60;;;;;;;27.60;100.00;99259.81;105891;1253;60546;-45
2023/07/27 08:03:58;;;;;;;20.50;7.30;;;;;;;27.51;100.00;99240.35;105813;1252;73795;-44
2023/07/27 08:06:25;;;;;;;20.70;7.90;;;;;;;27.48;100.00;99222.90;105844;1254;65415;-44
2023/07/27 08:08:52;;;;;;;14.80;6.90;;;;;;;27.43;100.00;99212.11;105887;1253;71785;-43
2023/07/27 08:11:19;;;;;;;17.40;7.50;;;;;;;27.35;100.00;99209.17;105803;1254;60933;-43
2023/07/27 08:13:46;;;;;;;31.80;8.40;;;;;;;27.28;100.00;99198.39;105884;1254;60648;-45
2023/07/27 08:16:13;;;;;;;30.30;9.00;;;;;;;27.19;100.00;99185.70;105867;1255;73736;-44
2023/07/27 08:18:40;;;;;;;15.50;7.80;;;;;;;27.10;100.00;99195.55;105860;1254;65448;-45
2023/07/27 08:21:08;;;;;;;13.30;7.10;;;;;;;27.08;100.00;99195.38;105936;1254;72596;-46
2023/07/27 08:23:35;;;;;;;35.60;8.50;;;;;;;27.05;100.00;99188.67;105697;1256;61653;-45
2023/07/27 08:26:07;;;;;;;32.30;8.30;;;;;;;27.07;100.00;99172.61;105962;1257;60559;-46
2023/07/27 08:28:33;;;;;;;19.10;7.50;;;;;;;27.11;100.00;99176.79;105880;1257;73771;-43
2023/07/27 08:31:02;;;;;;;20.00;7.50;;;;;;;27.16;100.00;99165.30;105993;1254;65895;-44
2023/07/27 08:33:30;;;;;;;14.70;7.90;;;;;;;27.33;100.00;99146.85;105899;1254;72903;-47
2023/07/27 08:35:57;;;;;;;19.00;8.20;;;;;;;27.49;100.00;99158.05;105900;1256;60352;-44
2023/07/27 08:38:28;;;;;;;23.30;8.40;;;;;;;27.65;100.00;99160.05;105829;1252;60411;-45
2023/07/27 08:41:01;;;;;;;24.50;8.40;;;;;;;27.74;100.00;99188.23;105906;1257;74210;-45
2023/07/27 08:43:28;;;;;;;15.70;8.00;;;;;;;27.74;100.00;99228.09;105900;1256;65971;-44
2023/07/27 08:45:55;;;;;;;16.30;8.00;;;;;;;27.64;100.00;99247.35;105588;1257;72374;-45
2023/07/27 08:48:23;;;;;;;25.10;8.40;;;;;;;27.52;100.00;99255.66;105638;1254;61949;-46
2023/07/27 08:50:50;;;;;;;20.80;7.50;;;;;;;27.56;100.00;99248.48;105663;1254;60833;-45
2023/07/27 08:53:17;;;;;;;16.10;7.50;;;;;;;27.79;100.00;99248.48;105730;1255;73755;-44
2023/07/27 08:55:44;;;;;;;16.60;7.90;;;;;;;28.09;100.00;99255.45;105587;1258;65902;-44
2023/07/27 08:58:11;;;;;;;17.10;8.20;;;;;;;28.33;100.00;99277.89;105628;1254;71445;-43
2023/07/27 09:00:38;;;;;;;34.30;9.80;;;;;;;28.53;100.00;99291.08;105646;1257;60417;-44
2023/07/27 09:03:07;;;;;;;20.80;8.80;;;;;;;28.60;100.00;99298.77;105825;1252;60408;-43
2023/07/27 09:05:41;;;;;;;21.30;8.20;;;;;;;28.69;100.00;99305.23;105914;1256;73774;-45
2023/07/27 09:08:10;;;;;;;19.90;7.70;;;;;;;28.91;100.00;99307.36;105984;1256;65547;-44
2023/07/27 09:10:37;;;;;;;23.10;7.60;;;;;;;29.26;100.00;99292.57;105949;1254;72544;-42
2023/07/27 09:13:04;;;;;;;17.00;8.60;;;;;;;29.48;100.00;99290.63;105942;1256;60354;-44
2023/07/27 09:15:32;;;;;;;14.70;7.80;;;;;;;29.73;100.00;99287.89;105947;1254;60527;-43
2023/07/27 09:18:01;;;;;;;14.50;8.00;;;;;;;29.74;100.00;99301.21;105966;1254;73857;-45
2023/07/27 09:20:28;;;;;;;13.80;7.70;;;;;;;29.77;100.00;99310.08;105838;1257;65539;-43
2023/07/27 09:22:56;;;;;;;20.70;8.40;;;;;;;29.89;100.00;99307.73;105904;1254;72901;-46
2023/07/27 09:25:24;;;;;;;17.70;8.40;;;;;;;29.93;100.00;99299.25;105948;1256;60437;-45
2023/07/27 09:27:53;;;;;;;16.10;8.20;;;;;;;29.95;100.00;99321.50;105980;1252;60553;-44
2023/07/27 09:30:21;;;;;;;20.10;8.50;;;;;;;30.03;100.00;99327.78;105991;1253;73683;-45
2023/07/27 09:32:47;;;;;;;39.80;9.70;;;;;;;30.11;100.00;99328.44;105928;1256;65494;-46
2023/07/27 09:35:15;;;;;;;33.00;9.60;;;;;;;30.01;100.00;99325.12;105922;1254;72705;-43
2023/07/27 09:37:47;;;;;;;26.70;9.90;;;;;;;29.84;100.00;99339.41;105886;1253;60475;-43
2023/07/27 09:40:16;;;;;;;23.60;8.70;;;;;;;29.79;100.00;99337.25;105975;1253;60527;-44
2023/07/27 09:42:44;;;;;;;31.80;10.20;;;;;;;29.68;100.00;99337.83;105955;1257;73885;-42
2023/07/27 09:45:12;;;;;;;20.90;9.50;;;;;;;29.71;100.00;99357.02;105897;1257;65341;-43
2023/07/27 09:47:39;;;;;;;18.30;8.80;;;;;;;29.93;100.00;99347.23;105953;1254;72638;-45
2023/07/27 09:50:07;;;;;;;29.20;9.20;;;;;;;30.14;100.00;99342.31;105887;1253;60326;-44
2023/07/27 09:52:35;;;;;;;17.70;7.80;;;;;;;30.42;100.00;99356.23;105943;1254;60298;-45
2023/07/27 09:55:02;;;;;;;21.80;8.90;;;;;;;30.87;100.00;99329.54;105961;1253;73020;-46
2023/07/27 09:57:29;;;;;;;20.50;7.20;;;;;;;31.20;99.58;99303.52;105841;1254;64127;-46
2023/07/27 09:59:56;;;;;;;15.40;6.40;;;;;;;31.44;98.70;99316.31;105903;1254;72543;-45
2023/07/27 10:02:23;;;;;;;14.90;6.60;;;;;;;31.66;88.94;99286.30;105758;1258;60548;-46
2023/07/27 10:04:58;;;;;;;15.70;6.50;;;;;;;31.53;75.78;99241.05;105903;1256;60460;-45
2023/07/27 10:07:25;;;;;;;13.20;6.50;;;;;;;31.13;73.56;99263.31;105932;1253;73765;-48
2023/07/27 10:10:26;;;;;;;19.60;7.00;;;;;;;30.59;75.30;99312.86;105926;1256;65447;-44
2023/07/27 10:12:57;;;;;;;22.40;6.40;;;;;;;30.10;81.23;99356.44;105933;1256;72683;-45
2023/07/27 10:15:26;;;;;;;13.30;6.30;;;;;;;29.84;85.25;99364.05;105949;1254;60383;-44
2023/07/27 10:17:56;;;;;;;11.40;5.90;;;;;;;29.61;89.39;99369.34;105959;1254;60429;-45
2023/07/27 10:20:28;;;;;;;16.60;6.00;;;;;;;29.36;97.72;99392.27;105920;1254;72872;-45
2023/07/27 10:23:11;;;;;;;16.90;6.50;;;;;;;29.12;100.00;99411.20;105937;1256;65263;-45
2023/07/27 10:25:55;;;;;;;19.50;6.00;;;;;;;28.88;100.00;99407.84;105729;1253;72612;-44
2023/07/27 10:28:38;;;;;;;15.70;6.30;;;;;;;28.57;100.00;99410.67;105854;1252;60543;-45
2023/07/27 10:31:19;;;;;;;11.60;6.20;;;;;;;28.35;100.00;99420.08;105939;1257;60603;-46
2023/07/27 10:33:48;;;;;;;12.20;6.50;;;;;;;28.43;100.00;99414.20;105977;1253;74238;-44
2023/07/27 10:36:15;;;;;;;14.10;6.80;;;;;;;28.77;100.00;99399.98;105943;1255;64030;-43
2023/07/27 10:38:57;;;;;;;12.20;6.30;;;;;;;29.18;100.00;99374.77;105969;1254;72720;-45
2023/07/27 10:41:25;;;;;;;13.90;5.60;;;;;;;29.73;100.00;99366.23;105757;1256;60514;-46
2023/07/27 10:44:06;;;;;;;16.60;6.00;;;;;;;30.27;99.62;99321.18;105922;1254;60425;-46
2023/07/27 10:46:43;;;;;;;15.50;5.10;;;;;;;30.45;89.85;99304.14;105946;1254;73797;-46
2023/07/27 10:49:11;;;;;;;13.20;5.10;;;;;;;30.42;86.38;99317.67;105834;1256;65460;-46
2023/07/27 11:03:50;;;;;;;14.00;4.40;;;;;;;30.89;71.12;99276.36;103517;1279;614564;-47
2023/07/27 11:06:19;;;;;;;8.30;3.90;;;;;;;31.00;67.73;99272.39;105076;1264;137985;-46
2023/07/27 11:08:46;;;;;;;24.00;5.00;;;;;;;31.12;66.42;99256.31;105203;1264;60534;-47
2023/07/27 11:11:17;;;;;;;12.90;4.80;;;;;;;31.07;63.64;99220.92;105209;1264;72074;-46
2023/07/27 11:13:44;;;;;;;49.90;6.10;;;;;;;30.89;63.23;99233.67;105223;1266;65450;-46
2023/07/27 11:16:14;;;;;;;18.00;4.20;;;;;;;30.65;60.60;99185.33;105157;1268;71859;-46
2023/07/27 11:18:44;;;;;;;15.90;4.90;;;;;;;30.40;61.70;99234.79;104843;1271;60351;-46
2023/07/27 11:21:11;;;;;;;35.10;5.20;;;;;;;30.45;64.50;99303.40;105198;1264;60281;-46
2023/07/27 11:23:48;;;;;;;28.60;5.20;;;;;;;30.39;65.33;99312.40;105130;1265;72172;-47
2023/07/27 11:26:15;;;;;;;14.60;4.70;;;;;;;30.42;68.36;99355.14;105155;1269;65382;-46
2023/07/27 11:28:42;;;;;;;44.30;6.00;;;;;;;30.60;66.25;99313.36;105136;1264;72660;-47